createdAt,value
2023-05-23T00:01:31.332Z,10.13
2023-05-23T00:03:59.419Z,19.20
2023-05-23T00:06:27.442Z,11.67
2023-05-23T00:08:55.690Z,9.23
2023-05-23T00:11:27.114Z,9.70
2023-05-23T00:13:55.416Z,12.33
2023-05-23T00:16:23.799Z,11.77
2023-05-23T00:18:51.796Z,8.80
2023-05-23T00:21:20.212Z,11.80
2023-05-23T00:23:48.024Z,8.50
2023-05-23T00:26:15.882Z,10.03
2023-05-23T00:28:45.055Z,8.17
2023-05-23T00:31:12.886Z,9.13
2023-05-23T00:33:40.843Z,12.70
2023-05-23T00:36:09.077Z,10.17
2023-05-23T00:38:36.952Z,9.97
2023-05-23T00:41:04.906Z,8.70
2023-05-23T00:43:32.731Z,9.40
2023-05-23T00:46:02.173Z,10.70
2023-05-23T00:48:30.391Z,10.00
2023-05-23T00:50:58.584Z,9.97
2023-05-23T00:53:27.362Z,12.20
2023-05-23T00:55:55.437Z,10.30
2023-05-23T00:58:23.359Z,14.53
2023-05-23T01:00:54.325Z,10.17
2023-05-23T01:03:23.878Z,8.10
2023-05-23T01:05:52.816Z,15.40
2023-05-23T01:08:20.637Z,9.20
2023-05-23T01:10:48.538Z,10.40
2023-05-23T01:13:31.646Z,10.00
2023-05-23T01:16:07.225Z,9.63
2023-05-23T01:18:41.387Z,8.17
2023-05-23T01:21:15.948Z,11.03
2023-05-23T01:24:21.500Z,8.93
2023-05-23T01:27:03.978Z,8.60
2023-05-23T01:29:38.378Z,9.77
2023-05-23T01:32:11.522Z,10.60
2023-05-23T01:34:40.806Z,8.33
2023-05-23T01:37:10.499Z,9.50
2023-05-23T01:39:38.553Z,10.30
2023-05-23T01:42:07.217Z,14.63
2023-05-23T01:44:37.188Z,20.13
2023-05-23T01:47:06.683Z,10.90
2023-05-23T01:49:36.276Z,9.30
2023-05-23T01:52:05.398Z,10.93
2023-05-23T01:54:35.193Z,10.97
2023-05-23T01:57:03.677Z,11.13
2023-05-23T01:59:31.581Z,9.63
2023-05-23T02:02:01.206Z,11.23
2023-05-23T02:04:29.549Z,12.40
2023-05-23T02:06:57.351Z,11.90
2023-05-23T02:09:25.334Z,11.17
2023-05-23T02:11:53.363Z,10.10
2023-05-23T02:14:21.975Z,10.27
2023-05-23T02:16:49.800Z,10.07
2023-05-23T02:19:19.123Z,10.87
2023-05-23T02:21:47.039Z,10.13
2023-05-23T02:24:14.818Z,11.03
2023-05-23T02:26:42.707Z,11.63
2023-05-23T02:29:10.558Z,12.07
2023-05-23T02:31:38.532Z,10.07
2023-05-23T02:34:06.441Z,10.27
2023-05-23T02:36:37.103Z,11.60
2023-05-23T02:39:05.492Z,14.33
2023-05-23T02:41:33.337Z,11.07
2023-05-23T02:44:01.122Z,14.50
2023-05-23T02:46:29.039Z,11.60
2023-05-23T02:48:56.910Z,9.70
2023-05-23T02:51:24.781Z,12.93
2023-05-23T02:53:53.932Z,11.77
2023-05-23T02:56:22.344Z,10.63
2023-05-23T02:58:50.387Z,17.93
2023-05-23T03:01:18.697Z,17.53
2023-05-23T03:03:46.588Z,15.07
2023-05-23T03:06:14.723Z,15.57
2023-05-23T03:08:43.375Z,13.93
2023-05-23T03:11:12.540Z,15.40
2023-05-23T03:13:40.333Z,19.20
2023-05-23T03:16:08.389Z,12.33
2023-05-23T03:18:36.278Z,15.30
2023-05-23T03:21:04.339Z,13.30
2023-05-23T03:23:32.128Z,13.93
2023-05-23T03:26:00.671Z,17.10
2023-05-23T03:28:29.932Z,13.57
2023-05-23T03:30:57.807Z,18.47
2023-05-23T03:33:25.837Z,11.30
2023-05-23T03:35:53.751Z,15.43
2023-05-23T03:38:21.713Z,12.80
2023-05-23T03:40:49.506Z,11.63
2023-05-23T03:43:17.349Z,16.80
2023-05-23T03:45:46.599Z,15.50
2023-05-23T03:48:14.550Z,14.23
2023-05-23T03:50:42.374Z,14.20
2023-05-23T03:53:10.212Z,12.00
2023-05-23T03:55:38.089Z,11.23
2023-05-23T03:58:06.196Z,10.90
2023-05-23T04:00:34.011Z,13.90
2023-05-23T04:03:03.371Z,11.50
2023-05-23T04:05:31.379Z,17.40
2023-05-23T04:08:01.619Z,12.80
2023-05-23T04:10:29.438Z,16.43
2023-05-23T04:12:57.358Z,13.57
2023-05-23T04:15:25.752Z,15.10
2023-05-23T04:17:53.578Z,12.70
2023-05-23T04:20:23.016Z,12.40
2023-05-23T04:22:50.837Z,13.47
2023-05-23T04:25:20.267Z,14.83
2023-05-23T04:27:48.255Z,14.13
2023-05-23T04:30:17.858Z,13.27
2023-05-23T04:32:46.028Z,11.50
2023-05-23T04:35:14.500Z,18.10
2023-05-23T04:37:45.455Z,15.97
2023-05-23T04:40:14.422Z,18.53
2023-05-23T04:42:44.509Z,16.27
2023-05-23T04:45:12.665Z,14.20
2023-05-23T04:47:42.015Z,16.93
2023-05-23T04:50:10.712Z,16.00
2023-05-23T04:52:38.510Z,13.87
2023-05-23T04:55:08.809Z,14.43
2023-05-23T04:57:37.168Z,15.40
2023-05-23T05:00:10.322Z,17.80
2023-05-23T05:02:38.630Z,14.30
2023-05-23T05:05:07.276Z,15.10
2023-05-23T05:07:35.893Z,19.43
2023-05-23T05:10:03.886Z,14.90
2023-05-23T05:12:32.988Z,15.77
2023-05-23T05:15:00.747Z,18.87
2023-05-23T05:17:29.982Z,15.20
2023-05-23T05:19:57.811Z,14.20
2023-05-23T05:22:25.691Z,28.00
2023-05-23T05:24:53.528Z,15.80
2023-05-23T05:27:21.450Z,26.03
2023-05-23T05:29:51.147Z,15.87
2023-05-23T05:32:19.006Z,18.60
2023-05-23T05:34:49.301Z,14.70
2023-05-23T05:37:17.733Z,21.47
2023-05-23T05:39:45.585Z,14.67
2023-05-23T05:42:13.361Z,16.80
2023-05-23T05:44:41.139Z,16.70
2023-05-23T05:47:10.280Z,16.67
2023-05-23T05:49:38.030Z,16.67
2023-05-23T05:52:06.863Z,18.93
2023-05-23T05:54:35.147Z,18.50
2023-05-23T05:57:02.956Z,16.00
2023-05-23T05:59:32.531Z,17.03
2023-05-23T06:02:00.815Z,18.10
2023-05-23T06:04:29.991Z,18.73
2023-05-23T06:06:57.871Z,14.27
2023-05-23T06:09:25.676Z,22.53
2023-05-23T06:11:53.547Z,17.50
2023-05-23T06:14:21.329Z,20.00
2023-05-23T06:16:49.697Z,16.50
2023-05-23T06:19:17.535Z,22.07
2023-05-23T06:21:46.689Z,16.07
2023-05-23T06:24:14.478Z,20.60
2023-05-23T06:26:42.275Z,16.13
2023-05-23T06:29:10.163Z,18.20
2023-05-23T06:31:37.972Z,17.47
2023-05-23T06:34:05.804Z,18.87
2023-05-23T06:36:33.595Z,16.53
2023-05-23T06:39:02.749Z,19.63
2023-05-23T06:41:30.547Z,19.20
2023-05-23T06:43:58.324Z,18.37
2023-05-23T06:46:26.390Z,21.30
2023-05-23T06:49:06.572Z,20.40
2023-05-23T06:51:42.104Z,21.37
2023-05-23T06:54:11.358Z,33.03
2023-05-23T06:56:39.151Z,20.20
2023-05-23T06:59:06.956Z,19.63
2023-05-23T07:01:34.828Z,21.20
2023-05-23T07:04:02.694Z,27.37
2023-05-23T07:06:31.249Z,20.20
2023-05-23T07:08:59.092Z,19.67
2023-05-23T07:11:28.242Z,24.00
2023-05-23T07:13:56.111Z,23.17
2023-05-23T07:16:24.030Z,23.07
2023-05-23T07:18:51.954Z,22.00
2023-05-23T07:21:19.793Z,20.60
2023-05-23T07:23:47.611Z,21.10
2023-05-23T07:26:15.499Z,21.70
2023-05-23T07:28:44.718Z,22.27
2023-05-23T07:31:13.511Z,22.67
2023-05-23T07:33:41.436Z,22.50
2023-05-23T07:36:10.027Z,25.90
2023-05-23T07:38:37.902Z,23.17
2023-05-23T07:41:11.438Z,21.10
2023-05-23T07:43:40.035Z,22.70
2023-05-23T07:46:09.253Z,21.60
2023-05-23T07:48:37.098Z,20.67
2023-05-23T07:51:05.193Z,23.57
2023-05-23T07:53:33.002Z,22.37
2023-05-23T07:56:00.810Z,23.43
2023-05-23T07:58:28.624Z,21.20
2023-05-23T08:00:57.919Z,20.93
2023-05-23T08:03:27.142Z,23.87
2023-05-23T08:05:54.980Z,23.17
2023-05-23T08:08:22.779Z,21.03
2023-05-23T08:10:50.757Z,21.17
2023-05-23T08:13:18.615Z,20.17
2023-05-23T08:15:46.452Z,23.67
2023-05-23T08:18:14.410Z,23.37
2023-05-23T08:20:43.829Z,21.57
2023-05-23T08:23:12.454Z,23.53
2023-05-23T08:25:40.554Z,24.80
2023-05-23T08:28:08.345Z,22.60
2023-05-23T08:30:36.677Z,21.50
2023-05-23T08:33:05.084Z,21.37
2023-05-23T08:35:35.287Z,20.50
2023-05-23T08:38:07.907Z,20.80
2023-05-23T08:40:37.670Z,27.23
2023-05-23T08:43:06.005Z,23.63
2023-05-23T08:45:34.496Z,21.40
2023-05-23T08:48:03.743Z,22.13
2023-05-23T08:50:31.987Z,24.90
2023-05-23T08:53:01.141Z,18.07
2023-05-23T08:55:31.501Z,17.93
2023-05-23T08:58:00.307Z,23.70
2023-05-23T09:00:29.303Z,21.97
2023-05-23T09:02:58.383Z,17.13
2023-05-23T09:05:27.716Z,26.13
2023-05-23T09:07:56.695Z,28.23
2023-05-23T09:10:24.854Z,19.10
2023-05-23T09:12:54.018Z,22.77
2023-05-23T09:15:23.848Z,21.90
2023-05-23T09:17:51.701Z,22.87
2023-05-23T09:20:19.696Z,22.77
2023-05-23T09:22:48.742Z,19.47
2023-05-23T09:25:16.974Z,19.60
2023-05-23T09:27:47.740Z,22.13
2023-05-23T09:30:19.880Z,24.23
2023-05-23T09:33:03.888Z,22.83
2023-05-23T09:35:33.518Z,21.50
2023-05-23T09:38:01.497Z,24.10
2023-05-23T09:40:33.134Z,27.00
2023-05-23T09:43:04.994Z,22.13
2023-05-23T09:45:34.951Z,25.03
2023-05-23T09:48:02.855Z,25.50
2023-05-23T09:50:34.725Z,18.43
2023-05-23T09:53:02.660Z,22.20
2023-05-23T09:55:30.722Z,24.77
2023-05-23T09:58:00.666Z,24.47
2023-05-23T10:00:28.868Z,20.63
2023-05-23T10:03:05.922Z,21.73
2023-05-23T10:05:38.368Z,21.70
2023-05-23T10:08:10.659Z,21.57
2023-05-23T10:11:23.455Z,24.97
2023-05-23T10:13:53.186Z,23.50
2023-05-23T10:16:27.912Z,21.30
2023-05-23T10:19:00.260Z,22.10
2023-05-23T10:21:34.126Z,25.00
2023-05-23T10:24:04.771Z,23.40
2023-05-23T10:26:32.901Z,21.30
2023-05-23T10:29:02.280Z,22.00
2023-05-23T10:31:31.080Z,21.97
2023-05-23T10:34:09.463Z,19.30
2023-05-23T10:36:45.928Z,18.80
2023-05-23T10:39:20.477Z,18.00
2023-05-23T10:41:56.331Z,18.73
2023-05-23T10:44:27.989Z,19.43
2023-05-23T10:46:58.157Z,19.50
2023-05-23T10:49:41.125Z,19.00
2023-05-23T10:52:10.645Z,19.43
2023-05-23T10:54:43.916Z,17.87
2023-05-23T10:57:12.604Z,16.50
2023-05-23T10:59:41.013Z,16.57
2023-05-23T11:02:15.036Z,19.50
2023-05-23T11:04:44.681Z,16.20
2023-05-23T11:07:31.887Z,19.27
2023-05-23T11:10:11.095Z,19.80
2023-05-23T11:12:40.270Z,16.57
2023-05-23T11:15:23.886Z,18.17
2023-05-23T11:17:53.760Z,14.97
2023-05-23T11:20:27.501Z,15.93
2023-05-23T11:22:56.637Z,17.17
2023-05-23T11:25:41.823Z,14.40
2023-05-23T11:28:10.564Z,17.10
2023-05-23T11:30:39.424Z,15.87
2023-05-23T11:33:13.617Z,15.73
2023-05-23T11:35:43.761Z,15.20
2023-05-23T11:38:12.562Z,14.03
2023-05-23T11:40:42.385Z,16.07
2023-05-23T11:43:12.820Z,14.77
2023-05-23T11:45:41.159Z,15.57
2023-05-23T11:48:09.913Z,18.13
2023-05-23T11:50:47.477Z,16.00
2023-05-23T11:53:17.606Z,15.83
2023-05-23T11:55:53.241Z,14.73
2023-05-23T11:58:22.669Z,17.00
2023-05-23T12:00:52.274Z,16.60
2023-05-23T12:03:22.680Z,16.57
2023-05-23T12:05:52.089Z,16.40
2023-05-23T12:08:19.903Z,17.83
2023-05-23T12:10:52.728Z,20.20
2023-05-23T12:13:20.993Z,14.83
2023-05-23T12:15:49.453Z,15.37
2023-05-23T12:18:20.061Z,16.10
2023-05-23T12:20:50.223Z,23.10
2023-05-23T12:23:23.318Z,13.70
2023-05-23T12:25:52.709Z,14.53
2023-05-23T12:28:20.578Z,13.70
2023-05-23T12:30:49.444Z,15.40
2023-05-23T12:33:19.688Z,13.53
2023-05-23T12:35:47.629Z,13.57
2023-05-23T12:38:18.676Z,20.23
2023-05-23T12:40:47.875Z,21.50
2023-05-23T12:43:16.853Z,13.40
2023-05-23T12:45:44.712Z,14.47
2023-05-23T12:48:12.710Z,14.63
2023-05-23T12:50:40.539Z,13.27
2023-05-23T12:53:08.450Z,15.93
2023-05-23T12:55:36.388Z,13.17
2023-05-23T12:58:05.673Z,14.80
2023-05-23T13:00:33.773Z,12.00
2023-05-23T13:03:01.633Z,13.73
2023-05-23T13:05:29.527Z,14.27
2023-05-23T13:07:59.380Z,14.10
2023-05-23T13:10:28.939Z,12.50
2023-05-23T13:12:58.010Z,17.23
2023-05-23T13:15:27.153Z,11.20
2023-05-23T13:17:55.038Z,19.30
2023-05-23T13:20:22.852Z,15.03
2023-05-23T13:22:50.779Z,10.90
2023-05-23T13:25:18.735Z,12.53
2023-05-23T13:27:48.756Z,13.50
2023-05-23T13:30:17.214Z,15.40
2023-05-23T13:32:47.525Z,15.13
2023-05-23T13:35:16.248Z,14.57
2023-05-23T13:37:44.331Z,14.00
2023-05-23T13:40:17.587Z,16.73
2023-05-23T13:42:45.826Z,14.77
2023-05-23T13:45:13.645Z,16.10
2023-05-23T13:47:41.571Z,13.83
2023-05-23T13:50:11.861Z,14.90
2023-05-23T13:52:42.919Z,11.27
2023-05-23T13:55:12.155Z,11.77
2023-05-23T13:57:39.995Z,12.00
2023-05-23T14:00:09.423Z,10.50
2023-05-23T14:02:37.286Z,14.63
2023-05-23T14:05:07.190Z,12.00
2023-05-23T14:07:37.214Z,11.10
2023-05-23T14:10:07.033Z,11.67
2023-05-23T14:12:34.852Z,11.63
2023-05-23T14:15:02.670Z,10.70
2023-05-23T14:17:30.563Z,13.20
2023-05-23T14:19:58.733Z,9.07
2023-05-23T14:22:26.587Z,11.50
2023-05-23T14:24:55.781Z,10.60
2023-05-23T14:27:23.561Z,13.77
2023-05-23T14:29:51.407Z,13.93
2023-05-23T14:32:19.471Z,12.77
2023-05-23T14:34:47.365Z,11.43
2023-05-23T14:37:15.188Z,11.50
2023-05-23T14:39:43.118Z,10.60
2023-05-23T14:42:12.359Z,9.37
2023-05-23T14:44:40.146Z,11.17
2023-05-23T14:47:08.050Z,9.93
2023-05-23T14:49:35.852Z,16.13
2023-05-23T14:52:03.760Z,11.70
2023-05-23T14:54:31.576Z,10.90
2023-05-23T14:56:59.404Z,10.67
2023-05-23T14:59:29.064Z,10.47
2023-05-23T15:01:56.946Z,12.47
2023-05-23T15:04:25.117Z,11.40
2023-05-23T15:06:53.279Z,11.70
2023-05-23T15:09:21.100Z,9.43
2023-05-23T15:11:49.443Z,12.20
2023-05-23T15:14:17.324Z,9.53
2023-05-23T15:16:48.734Z,12.67
2023-05-23T15:19:16.751Z,11.70
2023-05-23T15:21:50.341Z,12.03
2023-05-23T15:24:19.305Z,12.67
2023-05-23T15:26:47.166Z,9.63
2023-05-23T15:29:17.973Z,10.33
2023-05-23T15:31:47.186Z,9.20
2023-05-23T15:34:15.157Z,10.70
2023-05-23T15:36:43.070Z,8.43
2023-05-23T15:39:11.775Z,8.47
2023-05-23T15:41:39.711Z,12.93
2023-05-23T15:44:07.611Z,14.87
2023-05-23T15:46:36.839Z,7.87
2023-05-23T15:49:17.598Z,10.07
2023-05-23T15:51:53.200Z,9.30
2023-05-23T15:54:21.386Z,13.03
2023-05-23T15:56:49.276Z,7.83
2023-05-23T15:59:17.082Z,8.60
2023-05-23T16:01:45.240Z,8.40
2023-05-23T16:04:14.564Z,12.80
2023-05-23T16:06:42.466Z,9.77
2023-05-23T16:09:10.907Z,10.63
2023-05-23T16:11:38.750Z,8.30
2023-05-23T16:14:07.084Z,7.37
2023-05-23T16:16:35.402Z,9.37
2023-05-23T16:19:04.093Z,9.20
2023-05-23T16:21:33.401Z,8.40
2023-05-23T16:24:01.278Z,8.07
2023-05-23T16:26:29.153Z,8.10
2023-05-23T16:28:56.977Z,9.60
2023-05-23T16:31:28.177Z,7.07
2023-05-23T16:33:56.265Z,9.80
2023-05-23T16:36:24.199Z,5.47
2023-05-23T16:38:55.407Z,6.83
2023-05-23T16:41:23.674Z,7.50
2023-05-23T16:43:51.576Z,7.70
2023-05-23T16:46:22.063Z,9.30
2023-05-23T16:48:50.055Z,6.27
2023-05-23T16:51:17.889Z,5.13
2023-05-23T16:53:45.700Z,9.33
2023-05-23T16:56:14.993Z,8.07
2023-05-23T16:58:42.819Z,8.23
2023-05-23T17:01:10.916Z,4.93
2023-05-23T17:03:39.379Z,5.33
2023-05-23T17:06:07.556Z,6.97
2023-05-23T17:08:35.345Z,6.40
2023-05-23T17:11:03.177Z,5.43
2023-05-23T17:13:33.028Z,5.53
2023-05-23T17:16:01.305Z,7.87
2023-05-23T17:18:29.225Z,9.53
2023-05-23T17:20:57.119Z,4.50
2023-05-23T17:23:25.053Z,7.63
2023-05-23T17:25:52.827Z,4.90
2023-05-23T17:28:20.608Z,4.17
2023-05-23T17:30:51.491Z,4.67
2023-05-23T17:33:19.550Z,4.30
2023-05-23T17:35:47.666Z,4.17
2023-05-23T17:38:15.814Z,4.20
2023-05-23T17:40:43.852Z,5.97
2023-05-23T17:43:13.155Z,5.83
2023-05-23T17:45:41.389Z,5.10
2023-05-23T17:48:11.322Z,4.40
2023-05-23T17:50:39.291Z,4.80
2023-05-23T17:53:07.759Z,4.90
2023-05-23T17:55:35.614Z,5.73
2023-05-23T17:58:03.425Z,4.30
2023-05-23T18:00:34.034Z,3.70
2023-05-23T18:03:02.418Z,3.93
2023-05-23T18:05:31.621Z,3.30
2023-05-23T18:07:59.470Z,3.30
2023-05-23T18:10:27.374Z,4.20
2023-05-23T18:12:55.180Z,3.50
2023-05-23T18:15:24.110Z,4.17
2023-05-23T18:17:55.335Z,3.47
2023-05-23T18:20:23.218Z,4.47
2023-05-23T18:22:54.534Z,4.10
2023-05-23T18:25:27.194Z,4.10
2023-05-23T18:27:56.010Z,4.60
2023-05-23T18:30:23.828Z,4.60
2023-05-23T18:32:51.915Z,3.90
2023-05-23T18:35:20.577Z,3.60
2023-05-23T18:37:48.984Z,4.13
2023-05-23T18:40:18.353Z,4.40
2023-05-23T18:42:47.262Z,4.00
2023-05-23T18:45:15.125Z,4.37
2023-05-23T18:47:43.026Z,4.00
2023-05-23T18:50:11.902Z,3.80
2023-05-23T18:52:39.783Z,3.90
2023-05-23T18:55:08.550Z,4.93
2023-05-23T18:57:37.937Z,5.57
2023-05-23T19:00:07.276Z,4.50
2023-05-23T19:02:35.192Z,3.90
2023-05-23T19:05:03.344Z,5.60
2023-05-23T19:07:31.182Z,4.50
2023-05-23T19:09:58.966Z,5.43
2023-05-23T19:12:28.333Z,4.90
2023-05-23T19:14:58.503Z,3.80
2023-05-23T19:17:26.332Z,4.43
2023-05-23T19:19:54.326Z,4.20
2023-05-23T19:22:22.119Z,3.57
2023-05-23T19:24:50.031Z,4.00
2023-05-23T19:27:17.891Z,3.60
2023-05-23T19:29:45.851Z,4.30
2023-05-23T19:32:15.180Z,4.10
2023-05-23T19:34:43.432Z,5.00
2023-05-23T19:37:11.363Z,4.80
2023-05-23T19:39:42.646Z,4.97
2023-05-23T19:42:10.458Z,4.60
2023-05-23T19:44:38.302Z,4.43
2023-05-23T19:47:06.558Z,4.33
2023-05-23T19:49:35.836Z,4.00
2023-05-23T19:52:03.705Z,3.77
2023-05-23T19:54:31.870Z,4.37
2023-05-23T19:56:59.936Z,4.87
2023-05-23T19:59:27.717Z,3.67
2023-05-23T20:01:55.717Z,3.53
2023-05-23T20:04:25.002Z,6.73
2023-05-23T20:06:54.151Z,4.17
2023-05-23T20:09:22.164Z,4.27
2023-05-23T20:11:49.997Z,5.27
2023-05-23T20:14:17.897Z,4.40
2023-05-23T20:16:45.923Z,4.23
2023-05-23T20:19:13.738Z,3.93
2023-05-23T20:21:42.114Z,4.30
2023-05-23T20:24:12.604Z,4.37
2023-05-23T20:26:40.456Z,5.00
2023-05-23T20:29:08.358Z,7.00
2023-05-23T20:31:36.258Z,6.30
2023-05-23T20:34:04.118Z,6.80
2023-05-23T20:36:33.097Z,3.53
2023-05-23T20:39:01.423Z,4.50
2023-05-23T20:41:30.704Z,4.57
2023-05-23T20:44:00.184Z,5.53
2023-05-23T20:46:28.168Z,4.43
2023-05-23T20:48:57.364Z,4.40
2023-05-23T20:51:25.213Z,7.13
2023-05-23T20:53:53.161Z,4.73
2023-05-23T20:56:20.983Z,4.57
2023-05-23T20:58:50.163Z,4.93
2023-05-23T21:01:18.019Z,4.17
2023-05-23T21:03:45.848Z,7.27
2023-05-23T21:06:13.657Z,5.10
2023-05-23T21:08:41.454Z,4.70
2023-05-23T21:11:09.258Z,3.97
2023-05-23T21:13:39.612Z,5.50
2023-05-23T21:16:12.422Z,4.20
2023-05-23T21:18:40.355Z,9.90
2023-05-23T21:21:08.183Z,5.97
2023-05-23T21:23:36.022Z,5.40
2023-05-23T21:26:03.958Z,5.60
2023-05-23T21:28:31.865Z,10.03
2023-05-23T21:31:00.323Z,5.60
2023-05-23T21:33:29.565Z,4.80
2023-05-23T21:35:59.354Z,4.83
2023-05-23T21:38:29.408Z,4.67
2023-05-23T21:40:57.274Z,5.20
2023-05-23T21:43:25.110Z,9.50
2023-05-23T21:45:52.916Z,4.20
2023-05-23T21:48:20.850Z,4.10
2023-05-23T21:50:50.229Z,3.80
2023-05-23T21:53:18.186Z,5.30
2023-05-23T21:55:46.057Z,4.53
2023-05-23T21:58:13.870Z,3.90
2023-05-23T22:00:43.319Z,5.13
2023-05-23T22:03:11.465Z,4.40
2023-05-23T22:05:39.337Z,4.67
2023-05-23T22:08:08.669Z,5.07
2023-05-23T22:10:36.991Z,4.93
2023-05-23T22:13:05.249Z,3.90
2023-05-23T22:15:35.158Z,6.77
2023-05-23T22:18:03.794Z,4.90
2023-05-23T22:20:34.037Z,12.33
2023-05-23T22:23:03.034Z,5.27
2023-05-23T22:25:35.097Z,4.70
2023-05-23T22:28:02.989Z,5.70
2023-05-23T22:30:30.819Z,5.10
2023-05-23T22:33:01.591Z,4.77
2023-05-23T22:35:29.480Z,3.97
2023-05-23T22:37:57.277Z,5.00
2023-05-23T22:40:25.069Z,5.97
2023-05-23T22:42:54.184Z,3.70
2023-05-23T22:45:22.112Z,5.43
2023-05-23T22:47:50.602Z,5.37
2023-05-23T22:50:18.705Z,3.60
2023-05-23T22:52:48.247Z,4.30
2023-05-23T22:55:16.313Z,4.33
2023-05-23T22:57:44.064Z,3.63
2023-05-23T23:02:54.922Z,4.23
2023-05-23T23:05:22.917Z,4.67
2023-05-23T23:07:50.740Z,4.57
2023-05-23T23:10:18.597Z,4.37
2023-05-23T23:12:46.406Z,4.20
2023-05-23T23:15:14.212Z,4.97
2023-05-23T23:17:42.026Z,3.97
2023-05-23T23:20:12.461Z,10.17
2023-05-23T23:22:40.802Z,4.63
2023-05-23T23:25:10.564Z,3.47
2023-05-23T23:27:38.454Z,5.20
2023-05-23T23:30:07.654Z,4.53
2023-05-23T23:32:35.661Z,3.67
2023-05-23T23:35:03.554Z,4.60
2023-05-23T23:37:32.731Z,4.20
2023-05-23T23:40:00.591Z,4.20
2023-05-23T23:42:28.451Z,4.80
2023-05-23T23:44:56.249Z,4.60
2023-05-23T23:47:24.033Z,4.53
2023-05-23T23:49:51.838Z,3.80
2023-05-23T23:52:19.638Z,4.83
2023-05-23T23:54:48.827Z,3.80
2023-05-23T23:57:16.620Z,4.73
2023-05-23T23:59:45.021Z,4.23
